Time;durP1;ratioP1;P1;durP2;ratioP2;P2;SDS_P1;SDS_P2;PMS_P1;PMS_P2;Temp;Humidity;BMP_temperature;BMP_pressure;BME280_temperature;BME280_humidity;BME280_pressure;Samples;Min_cycle;Max_cycle;Signal;HPM_P1;HPM_P2
2022/09/19 00:01:39;;;;;;;100.43;94.82;;;;;;;;;;10154433;28;20061;-68
2022/09/19 00:06:36;;;;;;;98.43;92.93;;;;;;;;;;10188006;28;20420;-69
2022/09/19 00:11:33;;;;;;;98.03;92.38;;;;;;;;;;10183678;28;20058;-68
2022/09/19 00:16:31;;;;;;;98.38;92.93;;;;;;;;;;10180956;28;20056;-69
2022/09/19 00:21:31;;;;;;;95.10;89.80;;;;;;;;;;10176289;28;20085;-68
2022/09/19 00:26:27;;;;;;;101.13;95.45;;;;;;;;;;10181570;28;20056;-68
2022/09/19 00:31:24;;;;;;;97.47;92.07;;;;;;;;;;10192822;28;20046;-68
2022/09/19 00:36:20;;;;;;;92.72;87.53;;;;;;;;;;10193492;28;20100;-68
2022/09/19 00:41:25;;;;;;;96.88;91.53;;;;;;;;;;10192567;28;20045;-68
2022/09/19 00:46:22;;;;;;;92.88;87.38;;;;;;;;;;10192087;28;20046;-68
2022/09/19 00:51:22;;;;;;;95.28;89.97;;;;;;;;;;10191803;28;20060;-68
2022/09/19 00:56:18;;;;;;;98.55;93.07;;;;;;;;;;10192048;28;20050;-68
2022/09/19 01:01:15;;;;;;;94.80;89.40;;;;;;;;;;10193131;28;20046;-68
2022/09/19 01:06:11;;;;;;;99.43;93.85;;;;;;;;;;11272341;23;20073;-69
2022/09/19 01:11:11;;;;;;;100.03;94.47;;;;;;;;;;10188525;28;20053;-69
2022/09/19 01:16:12;;;;;;;96.13;90.82;;;;;;;;;;10168282;28;20050;-69
2022/09/19 01:21:38;;;;;;;97.15;91.57;;;;;;;;;;10113255;28;20486;-69
2022/09/19 01:26:46;;;;;;;98.82;93.15;;;;;;;;;;10134586;28;20053;-69
2022/09/19 01:31:45;;;;;;;99.85;94.10;;;;;;;;;;10120563;28;20436;-69
2022/09/19 01:36:43;;;;;;;98.60;92.78;;;;;;;;;;10128521;28;20078;-69
2022/09/19 01:41:46;;;;;;;98.10;92.53;;;;;;;;;;10119601;28;20090;-68
2022/09/19 01:46:42;;;;;;;;;;;;;;;;;;10179576;28;20042;-69
2022/09/19 01:51:45;;;;;;;96.95;91.50;;;;;;;;;;10171243;28;20391;-69
2022/09/19 01:56:47;;;;;;;98.30;92.72;;;;;;;;;;10178189;28;20507;-69
2022/09/19 02:01:50;;;;;;;97.95;92.22;;;;;;;;;;10158390;28;20046;-69
2022/09/19 02:06:58;;;;;;;97.78;91.97;;;;;;;;;;10178850;28;20050;-69
2022/09/19 02:11:56;;;;;;;100.03;94.40;;;;;;;;;;10134763;28;20050;-69
2022/09/19 02:17:03;;;;;;;96.50;91.07;;;;;;;;;;10180336;28;20543;-70
2022/09/19 02:22:05;;;;;;;99.20;93.60;;;;;;;;;;10118646;28;20042;-70
2022/09/19 02:27:07;;;;;;;99.18;93.45;;;;;;;;;;10143464;28;20069;-70
2022/09/19 02:32:04;;;;;;;;;;;;;;;;;;10118820;28;20081;-70
2022/09/19 02:37:18;;;;;;;98.32;92.63;;;;;;;;;;10132946;28;19922;-70
2022/09/19 02:42:14;;;;;;;98.28;92.68;;;;;;;;;;10118294;28;20050;-70
2022/09/19 02:47:19;;;;;;;100.35;94.50;;;;;;;;;;10117821;28;20046;-70
2022/09/19 02:52:19;;;;;;;99.68;93.95;;;;;;;;;;10117257;28;20053;-70
2022/09/19 02:57:17;;;;;;;98.32;92.63;;;;;;;;;;10185503;28;20648;-70
2022/09/19 03:02:24;;;;;;;101.13;95.22;;;;;;;;;;10138356;28;20054;-70
2022/09/19 03:07:25;;;;;;;97.43;91.80;;;;;;;;;;10184033;28;20050;-70
2022/09/19 03:12:25;;;;;;;99.88;94.03;;;;;;;;;;10116930;28;20047;-70
2022/09/19 03:17:24;;;;;;;99.40;93.65;;;;;;;;;;10143842;28;20046;-70
2022/09/19 03:22:22;;;;;;;100.85;95.05;;;;;;;;;;10116316;28;20054;-70
2022/09/19 03:27:18;;;;;;;97.97;92.28;;;;;;;;;;10138119;28;20047;-70
2022/09/19 03:32:14;;;;;;;97.05;91.18;;;;;;;;;;10116453;28;20052;-69
2022/09/19 03:37:11;;;;;;;98.15;92.35;;;;;;;;;;10182313;28;20053;-70
2022/09/19 03:42:07;;;;;;;100.47;94.57;;;;;;;;;;10164162;28;20061;-70
2022/09/19 03:47:04;;;;;;;100.10;94.10;;;;;;;;;;10180616;28;20499;-70
2022/09/19 03:52:00;;;;;;;97.95;92.05;;;;;;;;;;10147558;28;20054;-70
2022/09/19 03:56:56;;;;;;;97.88;92.10;;;;;;;;;;10178218;28;20050;-70
2022/09/19 04:01:54;;;;;;;97.97;92.13;;;;;;;;;;10132319;28;20057;-70
2022/09/19 04:06:50;;;;;;;101.72;95.60;;;;;;;;;;10157956;28;20047;-70
2022/09/19 04:11:52;;;;;;;98.60;92.65;;;;;;;;;;10114654;28;20509;-70
2022/09/19 04:16:49;;;;;;;103.13;97.03;;;;;;;;;;10144771;28;20054;-70
2022/09/19 04:22:05;;;;;;;95.10;89.20;;;;;;;;;;10114655;28;20047;-70
2022/09/19 04:27:06;;;;;;;102.03;95.75;;;;;;;;;;10126339;28;20436;-70
2022/09/19 04:32:03;;;;;;;105.85;99.28;;;;;;;;;;10114695;28;20481;-70
2022/09/19 04:37:03;;;;;;;96.40;90.40;;;;;;;;;;10177454;28;20046;-70
2022/09/19 04:42:00;;;;;;;95.53;89.32;;;;;;;;;;10165843;28;20050;-70
2022/09/19 04:46:57;;;;;;;104.97;98.13;;;;;;;;;;10175920;28;20455;-70
2022/09/19 04:51:55;;;;;;;101.82;95.57;;;;;;;;;;10163335;28;20050;-70
2022/09/19 04:56:51;;;;;;;108.75;101.97;;;;;;;;;;10174973;28;20046;-70
2022/09/19 05:01:47;;;;;;;108.20;101.00;;;;;;;;;;10136364;28;20058;-70
2022/09/19 05:06:44;;;;;;;106.68;100.07;;;;;;;;;;10172666;28;20055;-70
2022/09/19 05:11:42;;;;;;;105.53;98.47;;;;;;;;;;10121298;28;20042;-70
2022/09/19 05:16:38;;;;;;;105.22;98.38;;;;;;;;;;10143816;28;20059;-70
2022/09/19 05:21:36;;;;;;;99.45;93.00;;;;;;;;;;10121061;28;20433;-70
2022/09/19 05:26:33;;;;;;;103.30;96.80;;;;;;;;;;10177258;28;20534;-70
2022/09/19 05:31:29;;;;;;;98.10;91.80;;;;;;;;;;10200206;28;20061;-70
2022/09/19 05:36:27;;;;;;;97.55;91.28;;;;;;;;;;10188712;28;20096;-70
2022/09/19 05:41:23;;;;;;;98.03;91.85;;;;;;;;;;10199828;28;20125;-70
2022/09/19 05:46:20;;;;;;;99.93;93.18;;;;;;;;;;10188359;28;20053;-70
2022/09/19 05:51:17;;;;;;;98.38;91.88;;;;;;;;;;10191194;28;20527;-70
2022/09/19 05:56:13;;;;;;;92.00;85.88;;;;;;;;;;10170372;28;20046;-70
2022/09/19 06:01:10;;;;;;;92.10;85.65;;;;;;;;;;10160399;28;20546;-70
2022/09/19 06:06:11;;;;;;;92.20;85.90;;;;;;;;;;10168558;28;20706;-70
2022/09/19 06:11:08;;;;;;;84.68;78.35;;;;;;;;;;10128621;28;20147;-69
2022/09/19 06:16:04;;;;;;;89.53;82.75;;;;;;;;;;10167133;28;20042;-69
2022/09/19 06:21:01;;;;;;;91.05;84.60;;;;;;;;;;10136925;28;20504;-69
2022/09/19 06:25:57;;;;;;;91.03;84.55;;;;;;;;;;10149792;28;20047;-69
2022/09/19 06:30:53;;;;;;;89.38;82.32;;;;;;;;;;10118935;28;20047;-69
2022/09/19 06:35:49;;;;;;;91.20;84.53;;;;;;;;;;10162854;28;20042;-69
2022/09/19 06:40:46;;;;;;;89.20;82.07;;;;;;;;;;10197843;28;20411;-69
2022/09/19 06:45:42;;;;;;;85.50;79.07;;;;;;;;;;10175011;28;20053;-69
2022/09/19 06:50:38;;;;;;;86.25;79.78;;;;;;;;;;10183222;28;20038;-69
2022/09/19 06:55:34;;;;;;;84.68;77.95;;;;;;;;;;10158345;28;20415;-69
2022/09/19 07:00:32;;;;;;;91.68;83.22;;;;;;;;;;10157923;28;20050;-69
2022/09/19 07:05:36;;;;;;;90.07;83.10;;;;;;;;;;10156267;28;20056;-69
2022/09/19 07:10:35;;;;;;;88.35;81.38;;;;;;;;;;10129621;28;20057;-70
2022/09/19 07:15:32;;;;;;;91.65;83.57;;;;;;;;;;10143102;28;20058;-70
2022/09/19 07:20:28;;;;;;;94.82;87.70;;;;;;;;;;10116642;28;20070;-70
2022/09/19 07:25:25;;;;;;;96.60;89.10;;;;;;;;;;10152878;28;20406;-70
2022/09/19 07:30:21;;;;;;;97.95;90.53;;;;;;;;;;10196412;28;20060;-70
2022/09/19 07:35:24;;;;;;;;;;;;;;;;;;10166327;28;20056;-70
2022/09/19 07:40:21;;;;;;;97.53;89.38;;;;;;;;;;10195600;28;19921;-70
2022/09/19 07:45:18;;;;;;;100.75;93.07;;;;;;;;;;10151676;28;20046;-70
2022/09/19 07:50:16;;;;;;;100.10;92.18;;;;;;;;;;10191461;28;20049;-70
2022/09/19 07:55:13;;;;;;;107.60;99.30;;;;;;;;;;10150359;28;20042;-70
2022/09/19 08:00:10;;;;;;;115.10;105.68;;;;;;;;;;10176483;28;20046;-70
2022/09/19 08:05:07;;;;;;;119.10;109.82;;;;;;;;;;10163014;28;20492;-70
2022/09/19 08:10:03;;;;;;;118.40;109.72;;;;;;;;;;10142817;28;20057;-70
2022/09/19 08:15:00;;;;;;;129.85;120.93;;;;;;;;;;10146059;28;20128;-70
2022/09/19 08:19:56;;;;;;;129.02;120.03;;;;;;;;;;10139804;28;20066;-70
2022/09/19 08:24:52;;;;;;;115.53;107.13;;;;;;;;;;10143275;28;20133;-70
2022/09/19 08:29:49;;;;;;;121.15;112.90;;;;;;;;;;10116752;28;20046;-70
2022/09/19 08:34:45;;;;;;;114.03;106.55;;;;;;;;;;10121003;28;20261;-70
2022/09/19 08:40:15;;;;;;;100.15;93.88;;;;;;;;;;10114194;28;20428;-70
2022/09/19 08:45:10;;;;;;;93.60;88.00;;;;;;;;;;10144487;28;20061;-70
2022/09/19 08:50:15;;;;;;;60.75;56.20;;;;;;;;;;10194171;28;20058;-70
2022/09/19 08:55:16;;;;;;;46.22;43.05;;;;;;;;;;10154792;28;20488;-70
2022/09/19 09:00:21;;;;;;;37.75;34.35;;;;;;;;;;10193014;28;20049;-69
2022/09/19 09:05:20;;;;;;;26.70;24.02;;;;;;;;;;10150722;28;20096;-70
2022/09/19 09:10:21;;;;;;;23.77;20.83;;;;;;;;;;10188372;28;20072;-69
2022/09/19 09:15:25;;;;;;;22.33;17.40;;;;;;;;;;10149189;28;20514;-69
2022/09/19 09:20:47;;;;;;;17.17;14.65;;;;;;;;;;10173770;28;20039;-70
2022/09/19 09:25:47;;;;;;;14.13;12.10;;;;;;;;;;10155827;28;20049;-69
2022/09/19 09:30:49;;;;;;;15.05;13.10;;;;;;;;;;10131534;28;20117;-69
2022/09/19 09:35:47;;;;;;;13.75;12.35;;;;;;;;;;10156540;28;20046;-70
2022/09/19 09:46:08;;;;;;;15.50;11.50;;;;;;;;;;10161413;28;20364;-69
2022/09/19 09:51:08;;;;;;;15.90;12.25;;;;;;;;;;10127244;28;20047;-69
2022/09/19 09:56:16;;;;;;;15.68;12.88;;;;;;;;;;10139784;28;20424;-69
2022/09/19 10:06:42;;;;;;;15.15;12.73;;;;;;;;;;10177409;28;20075;-70
2022/09/19 10:11:42;;;;;;;11.73;10.45;;;;;;;;;;10198403;28;20041;-69
2022/09/19 10:17:01;;;;;;;13.70;9.60;;;;;;;;;;10190306;28;20407;-70
2022/09/19 10:21:57;;;;;;;11.40;8.98;;;;;;;;;;10187379;28;20054;-70
2022/09/19 10:27:00;;;;;;;10.90;8.65;;;;;;;;;;10180855;28;20678;-70
2022/09/19 10:31:57;;;;;;;;;;;;;;;;;;10178716;28;20047;-70
2022/09/19 10:36:54;;;;;;;8.82;7.80;;;;;;;;;;10179899;28;20329;-70
2022/09/19 10:41:50;;;;;;;9.52;7.90;;;;;;;;;;10150029;28;20129;-70
2022/09/19 10:46:49;;;;;;;11.80;9.73;;;;;;;;;;10176633;28;20049;-70
2022/09/19 10:51:47;;;;;;;14.13;10.15;;;;;;;;;;10135075;28;20139;-70
2022/09/19 10:56:43;;;;;;;13.43;9.40;;;;;;;;;;10176389;28;20054;-70
2022/09/19 11:01:39;;;;;;;8.57;7.78;;;;;;;;;;10124738;28;20046;-70
2022/09/19 11:06:54;;;;;;;15.00;8.00;;;;;;;;;;10166648;28;20102;-70
2022/09/19 11:11:51;;;;;;;7.07;6.10;;;;;;;;;;10117441;28;20053;-70
2022/09/19 11:17:01;;;;;;;9.45;6.20;;;;;;;;;;10165039;28;20050;-70
2022/09/19 11:22:16;;;;;;;6.50;5.90;;;;;;;;;;10117033;28;20046;-70
2022/09/19 11:27:31;;;;;;;7.25;5.90;;;;;;;;;;10139535;28;20043;-70
2022/09/19 11:32:45;;;;;;;6.13;5.53;;;;;;;;;;10116698;28;20043;-70
2022/09/19 11:37:53;;;;;;;7.15;6.45;;;;;;;;;;10128575;28;20649;-70
2022/09/19 11:42:50;;;;;;;7.18;6.50;;;;;;;;;;10116395;28;20049;-70
2022/09/19 11:47:59;;;;;;;6.38;5.78;;;;;;;;;;10191966;28;20038;-70
2022/09/19 11:53:21;;;;;;;6.18;5.57;;;;;;;;;;10164254;28;20055;-70
2022/09/19 11:58:18;;;;;;;6.90;6.20;;;;;;;;;;10115358;28;20062;-70
2022/09/19 12:03:34;;;;;;;9.50;7.22;;;;;;;;;;10119858;28;20050;-70
2022/09/19 12:08:39;;;;;;;10.18;6.28;;;;;;;;;;10193982;28;20041;-69
2022/09/19 12:13:42;;;;;;;9.55;8.77;;;;;;;;;;10135610;28;20079;-69
2022/09/19 12:18:49;;;;;;;15.98;14.45;;;;;;;;;;10193836;28;20141;-68
2022/09/19 12:29:10;;;;;;;15.55;14.55;;;;;;;;;;10154444;28;20043;-69
2022/09/19 12:34:29;;;;;;;16.95;15.85;;;;;;;;;;10131329;28;20601;-69
2022/09/19 12:39:36;;;;;;;25.95;24.25;;;;;;;;;;10137018;28;20047;-69
2022/09/19 12:44:44;;;;;;;30.95;29.25;;;;;;;;;;10123181;28;20127;-69
2022/09/19 12:49:56;;;;;;;42.67;40.40;;;;;;;;;;10113642;28;20057;-68
2022/09/19 12:54:52;;;;;;;62.28;58.83;;;;;;;;;;10142802;28;20511;-69
2022/09/19 12:59:51;;;;;;;59.30;56.15;;;;;;;;;;10193270;28;20506;-69
2022/09/19 13:04:59;;;;;;;31.75;29.95;;;;;;;;;;10138350;28;20118;-69
2022/09/19 13:10:01;;;;;;;36.47;34.08;;;;;;;;;;10113442;28;20049;-69
2022/09/19 13:15:02;;;;;;;39.70;37.38;;;;;;;;;;10116525;28;20492;-69
2022/09/19 13:25:16;;;;;;;47.00;44.33;;;;;;;;;;10154322;28;20060;-69
2022/09/19 13:30:31;;;;;;;49.72;46.80;;;;;;;;;;10181803;28;20460;-69
2022/09/19 13:35:27;;;;;;;49.70;46.90;;;;;;;;;;10159447;28;20053;-69
2022/09/19 13:40:39;;;;;;;61.28;57.90;;;;;;;;;;10156731;28;20401;-68
2022/09/19 13:45:41;;;;;;;62.73;59.33;;;;;;;;;;10162119;28;20408;-69
2022/09/19 13:50:52;;;;;;;66.47;62.75;;;;;;;;;;10136850;28;20452;-69
2022/09/19 13:55:59;;;;;;;72.85;68.65;;;;;;;;;;10158685;28;20546;-69
2022/09/19 14:01:15;;;;;;;74.47;70.45;;;;;;;;;;10120205;28;20141;-69
2022/09/19 14:06:17;;;;;;;137.80;130.30;;;;;;;;;;10123589;28;20541;-69
2022/09/19 14:11:16;;;;;;;115.88;110.03;;;;;;;;;;10119967;28;20042;-69
2022/09/19 14:16:36;;;;;;;21.38;20.15;;;;;;;;;;10170139;28;20042;-70
2022/09/19 14:21:34;;;;;;;20.98;19.55;;;;;;;;;;10190903;28;20188;-70
2022/09/19 14:26:43;;;;;;;18.52;16.88;;;;;;;;;;10174562;28;20045;-70
2022/09/19 14:31:58;;;;;;;17.80;16.48;;;;;;;;;;10181361;28;20050;-69
2022/09/19 14:37:01;;;;;;;15.45;14.18;;;;;;;;;;10179742;28;20053;-70
2022/09/19 14:42:09;;;;;;;12.07;10.80;;;;;;;;;;10166585;28;20053;-70
2022/09/19 14:47:10;;;;;;;16.92;15.77;;;;;;;;;;10183075;28;20124;-69
2022/09/19 14:52:15;;;;;;;13.98;12.65;;;;;;;;;;10140950;28;20054;-69
2022/09/19 14:57:16;;;;;;;10.57;9.77;;;;;;;;;;10184765;28;20046;-69
2022/09/19 15:02:25;;;;;;;10.23;9.35;;;;;;;;;;10161012;28;20046;-69
2022/09/19 15:07:26;;;;;;;8.85;7.93;;;;;;;;;;10179365;28;20047;-69
2022/09/19 15:12:35;;;;;;;9.68;9.00;;;;;;;;;;10117242;28;20129;-69
2022/09/19 15:17:34;;;;;;;11.43;10.30;;;;;;;;;;10145242;28;20050;-69
2022/09/19 15:22:33;;;;;;;10.45;9.65;;;;;;;;;;10116777;28;20572;-69
2022/09/19 15:27:33;;;;;;;11.70;10.90;;;;;;;;;;10127571;28;20062;-70
2022/09/19 15:32:38;;;;;;;8.30;7.70;;;;;;;;;;10115312;28;20130;-69
2022/09/19 15:37:36;;;;;;;11.00;10.20;;;;;;;;;;10119206;28;20061;-70
2022/09/19 15:42:35;;;;;;;9.93;9.13;;;;;;;;;;10115752;28;20046;-70
2022/09/19 15:47:31;;;;;;;9.45;8.55;;;;;;;;;;10187484;28;20050;-70
2022/09/19 15:52:30;;;;;;;7.05;6.55;;;;;;;;;;10174016;28;20050;-70
2022/09/19 15:57:33;;;;;;;7.90;7.20;;;;;;;;;;10186065;28;20045;-69
2022/09/19 16:02:35;;;;;;;9.40;8.60;;;;;;;;;;10136476;28;20047;-70
2022/09/19 16:12:48;;;;;;;10.63;9.00;;;;;;;;;;10115154;28;20505;-69
2022/09/19 16:17:51;;;;;;;10.82;8.40;;;;;;;;;;10138280;28;20428;-70
2022/09/19 16:22:50;;;;;;;;;;;;;;;;;;10115078;28;20057;-69
2022/09/19 16:27:46;;;;;;;12.50;8.90;;;;;;;;;;10135548;28;19933;-70
2022/09/19 16:32:42;;;;;;;10.27;9.32;;;;;;;;;;10118215;28;20042;-69
2022/09/19 16:37:39;;;;;;;7.85;7.18;;;;;;;;;;10190522;28;20058;-69
2022/09/19 16:42:36;;;;;;;9.73;8.93;;;;;;;;;;10160806;28;20665;-69
2022/09/19 16:47:32;;;;;;;9.98;9.27;;;;;;;;;;10186466;28;20049;-69
2022/09/19 16:52:34;;;;;;;14.20;13.05;;;;;;;;;;10133350;28;20050;-69
2022/09/19 16:57:30;;;;;;;21.15;19.98;;;;;;;;;;10174753;28;20039;-70
2022/09/19 17:02:31;;;;;;;24.10;22.83;;;;;;;;;;10113842;28;20046;-69
2022/09/19 17:07:27;;;;;;;24.98;23.45;;;;;;;;;;10168433;28;20059;-69
2022/09/19 17:12:24;;;;;;;28.70;27.00;;;;;;;;;;10113664;28;20057;-69
2022/09/19 17:17:20;;;;;;;31.67;29.48;;;;;;;;;;10155421;28;20047;-69
2022/09/19 17:22:17;;;;;;;39.40;37.10;;;;;;;;;;10112331;28;20048;-69
2022/09/19 17:27:14;;;;;;;42.28;39.85;;;;;;;;;;10131133;28;20050;-69
2022/09/19 17:32:10;;;;;;;53.58;50.05;;;;;;;;;;10113270;28;20042;-69
2022/09/19 17:37:07;;;;;;;60.40;56.72;;;;;;;;;;10179073;28;20511;-69
2022/09/19 17:42:03;;;;;;;65.80;62.22;;;;;;;;;;10174410;28;20046;-69
2022/09/19 17:46:59;;;;;;;75.40;71.10;;;;;;;;;;10176402;28;20046;-69
2022/09/19 17:51:55;;;;;;;82.35;77.93;;;;;;;;;;10164796;28;20047;-69
2022/09/19 17:56:52;;;;;;;86.03;81.45;;;;;;;;;;10174065;28;20050;-69
2022/09/19 18:07:03;;;;;;;87.85;82.95;;;;;;;;;;10177456;28;20042;-69
2022/09/19 18:11:59;;;;;;;97.03;91.47;;;;;;;;;;10143540;28;20050;-69
2022/09/19 18:16:56;;;;;;;101.43;95.40;;;;;;;;;;10180198;28;20411;-69
2022/09/19 18:21:53;;;;;;;98.18;92.75;;;;;;;;;;10119463;28;20062;-69
2022/09/19 18:26:49;;;;;;;96.90;91.28;;;;;;;;;;10169949;28;20043;-69
2022/09/19 18:31:46;;;;;;;102.28;96.40;;;;;;;;;;10119087;28;20532;-69
2022/09/19 18:36:42;;;;;;;103.40;97.47;;;;;;;;;;10146215;28;20527;-69
2022/09/19 18:41:38;;;;;;;99.22;93.47;;;;;;;;;;10118845;28;20045;-69
2022/09/19 18:46:35;;;;;;;104.85;98.70;;;;;;;;;;10175117;28;20072;-68
2022/09/19 18:51:32;;;;;;;105.78;99.75;;;;;;;;;;10172532;28;20043;-69
2022/09/19 18:56:28;;;;;;;112.82;106.70;;;;;;;;;;10173285;28;20061;-69
2022/09/19 19:01:25;;;;;;;116.05;109.20;;;;;;;;;;10171480;28;20058;-69
2022/09/19 19:06:22;;;;;;;114.15;107.70;;;;;;;;;;10170549;28;20529;-68
2022/09/19 19:11:20;;;;;;;112.95;106.55;;;;;;;;;;10158513;28;20687;-69
2022/09/19 19:16:18;;;;;;;112.15;105.85;;;;;;;;;;10169193;28;20049;-69
2022/09/19 19:21:15;;;;;;;113.90;107.32;;;;;;;;;;10121967;28;20046;-69
2022/09/19 19:26:12;;;;;;;117.38;110.82;;;;;;;;;;10145684;28;20053;-69
2022/09/19 19:31:08;;;;;;;113.65;107.38;;;;;;;;;;10116980;28;20089;-69
2022/09/19 19:36:07;;;;;;;113.88;107.53;;;;;;;;;;10165137;28;20081;-70
2022/09/19 19:41:04;;;;;;;116.47;109.68;;;;;;;;;;10195779;28;20599;-69
2022/09/19 19:46:03;;;;;;;116.60;110.00;;;;;;;;;;10178247;28;20041;-69
2022/09/19 19:51:05;;;;;;;122.95;116.15;;;;;;;;;;10195094;28;20068;-69
2022/09/19 19:56:03;;;;;;;113.90;107.70;;;;;;;;;;10169075;28;20419;-69
2022/09/19 20:01:10;;;;;;;111.72;105.50;;;;;;;;;;10167495;28;20065;-69
2022/09/19 20:06:06;;;;;;;113.47;107.18;;;;;;;;;;10164280;28;20555;-69
2022/09/19 20:11:04;;;;;;;119.78;113.10;;;;;;;;;;10145393;28;20535;-69
2022/09/19 20:16:03;;;;;;;115.57;109.03;;;;;;;;;;10162872;28;20042;-69
2022/09/19 20:21:04;;;;;;;114.95;108.53;;;;;;;;;;10118330;28;20101;-69
2022/09/19 20:26:00;;;;;;;117.93;111.32;;;;;;;;;;10150035;28;20053;-69
2022/09/19 20:31:03;;;;;;;117.47;110.80;;;;;;;;;;10114101;28;20047;-69
2022/09/19 20:36:01;;;;;;;121.20;114.38;;;;;;;;;;10147495;28;20075;-69
2022/09/19 20:41:00;;;;;;;118.15;111.53;;;;;;;;;;10114670;28;20465;-69
2022/09/19 20:45:57;;;;;;;120.13;113.25;;;;;;;;;;10133788;28;20042;-69
2022/09/19 20:50:55;;;;;;;119.28;112.53;;;;;;;;;;10114471;28;20055;-69
2022/09/19 20:55:52;;;;;;;124.47;117.28;;;;;;;;;;10159036;28;20050;-69
2022/09/19 21:00:58;;;;;;;123.75;116.85;;;;;;;;;;10190190;28;20415;-69
2022/09/19 21:05:55;;;;;;;124.90;118.03;;;;;;;;;;10159923;28;20515;-69
2022/09/19 21:11:01;;;;;;;120.68;113.88;;;;;;;;;;10160557;28;20069;-69
2022/09/19 21:16:03;;;;;;;115.07;108.47;;;;;;;;;;10160549;28;20049;-69
2022/09/19 21:21:00;;;;;;;122.65;115.88;;;;;;;;;;10153375;28;20047;-69
2022/09/19 21:26:17;;;;;;;120.53;113.85;;;;;;;;;;10159900;28;20531;-69
2022/09/19 21:31:14;;;;;;;120.35;113.50;;;;;;;;;;10132815;28;20046;-69
2022/09/19 21:36:11;;;;;;;120.85;114.15;;;;;;;;;;10163724;28;20050;-69
2022/09/19 21:41:08;;;;;;;123.30;116.30;;;;;;;;;;10113211;28;20054;-69
2022/09/19 21:46:05;;;;;;;120.85;114.28;;;;;;;;;;10141951;28;20050;-69
2022/09/19 21:51:02;;;;;;;123.05;116.32;;;;;;;;;;10120387;28;20054;-69
2022/09/19 21:55:59;;;;;;;124.93;117.90;;;;;;;;;;10144094;28;20581;-66
2022/09/19 22:00:59;;;;;;;120.63;114.00;;;;;;;;;;10159337;28;20520;-66
2022/09/19 22:05:59;;;;;;;121.38;114.65;;;;;;;;;;10161240;28;20069;-66
2022/09/19 22:11:05;;;;;;;125.72;118.93;;;;;;;;;;10149585;28;20042;-68
2022/09/19 22:16:03;;;;;;;128.20;121.00;;;;;;;;;;10159083;28;20046;-69
2022/09/19 22:21:00;;;;;;;122.10;115.40;;;;;;;;;;10153720;28;20042;-69
2022/09/19 22:26:00;;;;;;;129.63;122.57;;;;;;;;;;10150485;28;20053;-69
2022/09/19 22:30:58;;;;;;;130.77;123.32;;;;;;;;;;10170449;28;20049;-69
2022/09/19 22:35:58;;;;;;;129.20;122.00;;;;;;;;;;10166586;28;20065;-69
2022/09/19 22:40:55;;;;;;;126.90;119.45;;;;;;;;;;10153144;28;20049;-68
2022/09/19 22:45:51;;;;;;;124.07;117.05;;;;;;;;;;10171849;28;20103;-68
2022/09/19 22:50:48;;;;;;;127.90;120.50;;;;;;;;;;10154645;28;20180;-69
2022/09/19 22:55:57;;;;;;;126.13;119.00;;;;;;;;;;10151461;28;20038;-69
2022/09/19 23:00:54;;;;;;;129.43;122.22;;;;;;;;;;10157461;28;20057;-67
2022/09/19 23:05:59;;;;;;;135.55;128.05;;;;;;;;;;10165864;28;20060;-68
2022/09/19 23:11:02;;;;;;;130.60;123.40;;;;;;;;;;10168479;28;20073;-68
2022/09/19 23:15:59;;;;;;;128.60;121.20;;;;;;;;;;10168652;28;20058;-68
2022/09/19 23:20:58;;;;;;;131.25;123.45;;;;;;;;;;10156040;28;20505;-68
2022/09/19 23:25:55;;;;;;;123.82;116.13;;;;;;;;;;10166294;28;20134;-68
2022/09/19 23:30:51;;;;;;;126.90;119.43;;;;;;;;;;10157848;28;20069;-68
2022/09/19 23:35:54;;;;;;;126.65;119.35;;;;;;;;;;10161000;28;20053;-68
2022/09/19 23:40:50;;;;;;;130.13;122.80;;;;;;;;;;10158786;28;20053;-68
2022/09/19 23:45:47;;;;;;;121.70;114.65;;;;;;;;;;10159249;28;20053;-68
2022/09/19 23:50:43;;;;;;;124.18;117.20;;;;;;;;;;10166621;28;20038;-67
2022/09/19 23:55:41;;;;;;;127.32;119.97;;;;;;;;;;10162814;28;20499;-67
